Flight Track Log - Related Links

Times and Time Zones

All times are in EDT time to prevent confusion due to time zone crossing. See the EJA922 flight status page for this flight to view local times or setup timezone preferences in your user account.

Time Position Orientation Groundspeed Altitude Reporting Facility
EDT Latitude Longitude Course Direction KTS MPH feet Rate Location/Type
Fri 10:05:58 PM 38.1928 -122.2975 139° Southeast 227 261 1,000  Level Oakland Center
Fri 10:06:59 PM 38.1744 -122.3972 257° West 266 306 4,400 3,317 Climbing Oakland Center
Fri 10:08:01 PM 38.1558 -122.4900 256° West 271 312 7,800 2,244 Climbing Oakland Center
Fri 10:09:02 PM 38.1367 -122.5853 256° West 279 321 9,000 590 Climbing Oakland Center
Fri 10:10:00 PM 38.0744 -122.8322 254° West  Level FlightAware Approximate
Fri 10:10:03 PM 38.1169 -122.6822 256° West 286 329 9,000  Level Oakland Center
Fri 10:11:00 PM 38.0293 -122.8258 139° Southeast  Level FlightAware Approximate
Fri 10:11:04 PM 38.0864 -122.7775 248° West 302 348 11,300  Level Oakland Center
Fri 10:12:06 PM 37.9956 -122.7831 183° South 363 418 12,000 341 Climbing Oakland Center
Fri 10:13:07 PM 37.8947 -122.6697 138° Southeast 416 479 12,000 64 Level Oakland Center
Fri 10:13:40 PM 37.8500 -122.6167 137° Southeast 420 483 12,100  Climbing Northern Cal TRACON
Fri 10:14:40 PM 37.7667 -122.5167 136° Southeast 420 483 12,000 -50 Descending Northern Cal TRACON
Fri 10:15:40 PM 37.6667 -122.4333 147° Southeast 403 464 12,000  Level Northern Cal TRACON
Fri 10:16:40 PM 37.6000 -122.3500 135° Southeast 307 353 12,000 -200 Level Northern Cal TRACON
Fri 10:17:40 PM 37.5333 -122.3167 158° South 303 349 11,600 -600 Descending Northern Cal TRACON
Fri 10:18:40 PM 37.4500 -122.2667 155° Southeast 299 344 10,800 -800 Descending Northern Cal TRACON
Fri 10:19:40 PM 37.3833 -122.2167 149° Southeast 264 304 10,000 -750 Descending Northern Cal TRACON
Fri 10:20:16 PM 37.3569 -122.1811 133° Southeast 259 298 9,600 -1,052 Descending Oakland Center
Fri 10:21:17 PM 37.3153 -122.1067 125° Southeast 259 298 8,300 -1,230 Descending Oakland Center
Fri 10:22:18 PM 37.2744 -122.0358 126° Southeast 253 291 7,100 -1,180 Descending Oakland Center
Fri 10:23:19 PM 37.2350 -121.9656 125° Southeast 249 287 5,900 -934 Descending Oakland Center
Fri 10:24:20 PM 37.1983 -121.9028 126° Southeast 231 266 5,200 -780 Descending Oakland Center
Fri 10:25:22 PM 37.2133 -121.8442 72° East 208 239 4,300 -1,122 Descending Oakland Center
Fri 10:26:23 PM 37.2542 -121.8094 34° Northeast 204 235 2,900 -1,230 Descending Oakland Center
Fri 10:27:24 PM 37.2897 -121.8533 316° Northwest 187 215 1,800 -934 Descending Oakland Center
Fri 10:28:25 PM 37.3214 -121.8869 320° Northwest 168 193 1,000 -780 Descending Oakland Center
Fri 10:29:27 PM 37.3503 -121.9192 318° Northwest 134 154 200 -774 Descending Oakland Center

Login

Don't have an account? Register now (free) for customized features, flight alerts, and more!